»·PEaware :: WAT202 KLAX-PHNL

WAT202 :: KLAX-PHNL

FLIGHT INFORMATION

Flight Status: Arrived
Operator:
Walker Air Transport
More flights by this operator :: More flights under this callsign
Pilot: Nick L. (7253)
Aircraft: AÉROSPATIALE-BAC CONCORDE
(CONC)
More flights by this aircraft type
Origin: KLAX Los Angeles Intl
United States
Destination: PHNL Honolulu Intl
United States
More flights between these airports :: More routes between these airports
Route: VTU8 DINTY R576 DENNS MAGGI3
File this flight plan on PilotEdge
Remarks:
Altitude:
(Current/Filed)
60,000ft
Speed:
(Current/Filed)
999kts
Departed: 10-Mar-21 12:00 PM
Arrived: 10-Mar-21 02:34 PM
Distance/Time
Traveled:
2216nm/2:33
Distance/Time
To Go:
Arrived

Flight Plot

Page will automatically refresh every two minutes.

Flight plan parsing failed; only flown route is shown


Map Options




Map Legend


Flown Route
Filed Route
Departure Airport
Arrival Airport
Navaid (VOR, NDB)
Fix

Horizontal Profiles

Position Reports

Time Latitude Longitude Heading Altitude Ground
Speed
10-Mar-21 11:19 33.941788 -118.393416 269 117ft 0kts
10-Mar-21 11:20 33.941788 -118.393416 269 117ft 0kts
10-Mar-21 11:21 33.941788 -118.393416 269 117ft 0kts
10-Mar-21 11:22 33.941788 -118.393416 269 117ft 0kts
10-Mar-21 11:23 33.941788 -118.393416 269 117ft 0kts
10-Mar-21 11:24 33.941788 -118.393416 269 117ft 0kts
10-Mar-21 11:25 33.941788 -118.393416 269 117ft 0kts
10-Mar-21 11:26 33.941788 -118.393416 269 117ft 0kts
10-Mar-21 11:27 33.941788 -118.393416 269 117ft 0kts
10-Mar-21 11:28 33.941788 -118.393416 269 117ft 0kts
10-Mar-21 11:29 33.941788 -118.393416 269 117ft 0kts
10-Mar-21 11:30 33.941788 -118.393416 269 117ft 0kts
10-Mar-21 11:31 33.941788 -118.393416 269 117ft 0kts
10-Mar-21 11:32 33.941788 -118.393416 269 117ft 0kts
10-Mar-21 11:33 33.941788 -118.393416 269 117ft 0kts
10-Mar-21 11:34 33.941788 -118.393416 269 117ft 0kts
10-Mar-21 11:35 33.941788 -118.393416 269 117ft 0kts
10-Mar-21 11:36 33.941788 -118.393416 269 117ft 0kts
10-Mar-21 11:37 33.941788 -118.393416 269 117ft 0kts
10-Mar-21 11:38 33.941788 -118.393416 269 117ft 0kts
10-Mar-21 11:39 33.941788 -118.393416 269 117ft 0kts
10-Mar-21 11:40 33.941788 -118.393416 269 117ft 0kts
10-Mar-21 11:41 33.941788 -118.393416 269 117ft 0kts
10-Mar-21 11:42 33.941788 -118.393416 269 117ft 0kts
10-Mar-21 11:43 33.941788 -118.393416 269 117ft 0kts
10-Mar-21 11:44 33.941788 -118.393416 269 117ft 0kts
10-Mar-21 11:45 33.941796 -118.393195 254 117ft 2kts
10-Mar-21 11:46 33.942211 -118.392842 179 117ft 1kts
10-Mar-21 11:47 33.942233 -118.392842 180 117ft 0kts
10-Mar-21 11:48 33.942233 -118.392842 180 117ft 0kts
10-Mar-21 11:49 33.942160 -118.392842 180 117ft 1kts
10-Mar-21 11:50 33.939968 -118.392195 151 117ft 12kts
10-Mar-21 11:51 33.939984 -118.388104 82 117ft 12kts
10-Mar-21 11:52 33.940428 -118.383966 82 117ft 12kts
10-Mar-21 11:53 33.940702 -118.380983 91 117ft 0kts
10-Mar-21 11:54 33.940702 -118.380983 91 117ft 0kts
10-Mar-21 11:55 33.940700 -118.380945 95 117ft 1kts
10-Mar-21 11:56 33.940699 -118.380932 96 117ft 0kts
10-Mar-21 11:57 33.940699 -118.380932 96 117ft 0kts
10-Mar-21 11:58 33.940684 -118.380818 102 117ft 3kts
10-Mar-21 11:59 33.939413 -118.384218 262 117ft 105kts
10-Mar-21 12:00 33.933565 -118.458659 263 2480ft 240kts
10-Mar-21 12:01 33.925469 -118.539589 263 4448ft 241kts
10-Mar-21 12:02 33.916510 -118.623307 263 7753ft 250kts
10-Mar-21 12:03 33.907587 -118.709941 262 11414ft 262kts
10-Mar-21 12:04 33.898812 -118.809354 263 13638ft 328kts
10-Mar-21 12:05 33.888780 -118.920594 263 15002ft 323kts
10-Mar-21 12:06 33.878563 -119.031849 263 16477ft 335kts
10-Mar-21 12:07 33.868007 -119.146079 263 19646ft 337kts
10-Mar-21 12:08 33.857149 -119.261863 263 22860ft 342kts
10-Mar-21 12:09 33.845654 -119.381485 263 25876ft 380kts
10-Mar-21 12:10 33.832332 -119.524433 263 28125ft 430kts
10-Mar-21 12:11 33.818509 -119.670571 263 28134ft 426kts
10-Mar-21 12:12 33.804186 -119.816252 262 28134ft 427kts
10-Mar-21 12:13 33.787694 -119.975681 262 28119ft 480kts
10-Mar-21 12:14 33.770480 -120.139711 262 29824ft 489kts
10-Mar-21 12:15 33.752181 -120.311470 262 34295ft 537kts
10-Mar-21 12:16 33.731493 -120.503592 262 36709ft 603kts
10-Mar-21 12:17 33.708107 -120.717164 261 38531ft 693kts
10-Mar-21 12:18 33.677566 -120.991771 261 45071ft 916kts
10-Mar-21 12:19 33.640005 -121.321246 261 48616ft 1015kts
10-Mar-21 12:20 33.598299 -121.678502 261 50195ft 1084kts
10-Mar-21 12:21 33.553461 -122.053094 261 51566ft 1117kts
10-Mar-21 12:22 33.506867 -122.432240 261 53189ft 1124kts
10-Mar-21 12:23 33.441676 -122.810564 256 54247ft 1128kts
10-Mar-21 12:24 33.363897 -123.184105 256 55022ft 1128kts
10-Mar-21 12:25 33.284661 -123.558355 256 55367ft 1133kts
10-Mar-21 12:26 33.203936 -123.933604 255 55764ft 1134kts
10-Mar-21 12:27 33.122241 -124.307464 255 56156ft 1134kts
10-Mar-21 12:28 33.038972 -124.682334 255 56536ft 1133kts
10-Mar-21 12:29 32.955399 -125.052375 255 56934ft 1133kts
10-Mar-21 12:30 32.869971 -125.425043 255 57324ft 1132kts
10-Mar-21 12:31 32.783783 -125.795537 254 57719ft 1131kts
10-Mar-21 12:32 32.696560 -126.165074 254 58124ft 1130kts
10-Mar-21 12:33 32.608225 -126.534025 254 58510ft 1130kts
10-Mar-21 12:34 32.519151 -126.900852 254 58909ft 1127kts
10-Mar-21 12:35 32.429294 -127.265845 254 59305ft 1125kts
10-Mar-21 12:36 32.338665 -127.628986 254 59719ft 1120kts
10-Mar-21 12:37 32.247548 -127.989236 253 60028ft 1117kts
10-Mar-21 12:38 32.155476 -128.348502 253 60103ft 1116kts
10-Mar-21 12:39 32.062584 -128.706333 253 60092ft 1116kts
10-Mar-21 12:40 31.968240 -129.065127 253 60087ft 1117kts
10-Mar-21 12:41 31.873337 -129.421456 253 60083ft 1118kts
10-Mar-21 12:42 31.777033 -129.778617 252 60096ft 1119kts
10-Mar-21 12:43 31.679960 -130.134190 252 60083ft 1120kts
10-Mar-21 12:44 31.581334 -130.491062 252 60082ft 1121kts
10-Mar-21 12:45 31.481853 -130.846702 252 60084ft 1123kts
10-Mar-21 12:46 31.381343 -131.201751 252 60093ft 1125kts
10-Mar-21 12:47 31.279302 -131.557961 252 60090ft 1127kts
10-Mar-21 12:48 31.176166 -131.913777 251 60046ft 1129kts
10-Mar-21 12:49 31.071810 -132.269542 251 60036ft 1130kts
10-Mar-21 12:50 30.966675 -132.623715 251 60034ft 1132kts
10-Mar-21 12:51 30.859902 -132.979276 251 60041ft 1133kts
10-Mar-21 12:52 30.752333 -133.333498 251 60037ft 1134kts
10-Mar-21 12:53 30.643455 -133.688059 250 60038ft 1136kts
10-Mar-21 12:54 30.533802 -134.041229 250 60039ft 1137kts
10-Mar-21 12:55 30.422835 -134.394757 250 60036ft 1137kts
10-Mar-21 12:56 30.310617 -134.748408 249 60042ft 1138kts
10-Mar-21 12:57 30.198016 -135.099507 249 60037ft 1138kts
10-Mar-21 12:58 30.084323 -135.450294 249 60036ft 1137kts
10-Mar-21 12:59 29.969172 -135.801846 249 60086ft 1137kts
10-Mar-21 13:00 29.853549 -136.151216 249 60097ft 1137kts
10-Mar-21 13:01 29.737230 -136.499119 249 60090ft 1137kts
10-Mar-21 13:02 29.619809 -136.846786 248 60093ft 1138kts
10-Mar-21 13:03 29.501223 -137.194396 248 60048ft 1138kts
10-Mar-21 13:04 29.381851 -137.540861 248 60034ft 1138kts
10-Mar-21 13:05 29.261298 -137.887328 248 60037ft 1139kts
10-Mar-21 13:06 29.139973 -138.232642 248 60037ft 1139kts
10-Mar-21 13:07 29.017559 -138.577725 248 60035ft 1139kts
10-Mar-21 13:08 28.894515 -138.921271 247 60144ft 1139kts
10-Mar-21 13:09 28.770674 -139.263820 247 60196ft 1140kts
10-Mar-21 13:10 28.645294 -139.606954 247 60191ft 1140kts
10-Mar-21 13:11 28.519314 -139.948127 247 60195ft 1140kts
10-Mar-21 13:12 28.392075 -140.289564 247 60193ft 1141kts
10-Mar-21 13:13 28.263793 -140.630704 247 60191ft 1141kts
10-Mar-21 13:14 28.134980 -140.970189 246 60194ft 1143kts
10-Mar-21 13:15 28.005041 -141.309620 246 60192ft 1145kts
10-Mar-21 13:16 27.873663 -141.649795 246 60193ft 1146kts
10-Mar-21 13:17 27.741859 -141.988098 246 60195ft 1146kts
10-Mar-21 13:18 27.608973 -142.326240 246 60200ft 1147kts
10-Mar-21 13:19 27.474919 -142.664454 245 60202ft 1148kts
10-Mar-21 13:20 27.340522 -143.000655 245 60203ft 1149kts
10-Mar-21 13:21 27.205058 -143.336708 245 60202ft 1149kts
10-Mar-21 13:22 27.067872 -143.674201 245 60201ft 1150kts
10-Mar-21 13:23 26.931281 -144.007445 245 60121ft 1151kts
10-Mar-21 13:24 26.792992 -144.342111 245 60132ft 1153kts
10-Mar-21 13:25 26.654397 -144.674808 244 60129ft 1153kts
10-Mar-21 13:26 26.514492 -145.007968 244 60130ft 1154kts
10-Mar-21 13:28 26.373751 -145.340482 244 60139ft 1154kts
10-Mar-21 13:29 26.231852 -145.672819 243 60163ft 1154kts
10-Mar-21 13:30 26.089800 -146.003238 243 60166ft 1154kts
10-Mar-21 13:31 25.946414 -146.334435 244 60166ft 1154kts
10-Mar-21 13:32 25.802545 -146.664437 243 60166ft 1155kts
10-Mar-21 13:33 25.657600 -146.994426 243 60169ft 1156kts
10-Mar-21 13:34 25.512023 -147.323365 243 60198ft 1156kts
10-Mar-21 13:35 25.365246 -147.652549 243 60204ft 1156kts
10-Mar-21 13:36 25.218602 -147.979302 243 60199ft 1157kts
10-Mar-21 13:37 25.070615 -148.306359 243 60202ft 1158kts
10-Mar-21 13:38 24.921619 -148.633278 243 60201ft 1159kts
10-Mar-21 13:39 24.771716 -148.959801 243 60202ft 1159kts
10-Mar-21 13:40 24.621884 -149.283897 243 60201ft 1160kts
10-Mar-21 13:41 24.470848 -149.608299 243 60201ft 1161kts
10-Mar-21 13:42 24.318892 -149.932389 243 60201ft 1162kts
10-Mar-21 13:43 24.166028 -150.256200 243 60199ft 1162kts
10-Mar-21 13:44 24.012263 -150.579690 243 60202ft 1162kts
10-Mar-21 13:45 23.858586 -150.900780 242 60201ft 1162kts
10-Mar-21 13:46 23.703993 -151.221645 242 60201ft 1163kts
10-Mar-21 13:47 23.548372 -151.542512 242 60201ft 1163kts
10-Mar-21 13:48 23.392570 -151.861567 242 60203ft 1163kts
10-Mar-21 13:49 23.235881 -152.180444 242 60203ft 1163kts
10-Mar-21 13:50 23.077994 -152.499702 242 60194ft 1162kts
10-Mar-21 13:51 22.919693 -152.815656 241 60194ft 1162kts
10-Mar-21 13:51 22.787020 -153.078291 241 60190ft 1162kts
10-Mar-21 13:53 22.599448 -153.447294 241 60194ft 1163kts
10-Mar-21 13:54 22.438383 -153.762553 241 60196ft 1164kts
10-Mar-21 13:55 22.326960 -154.097419 268 60352ft 1164kts
10-Mar-21 13:56 22.385777 -154.409484 285 60202ft 906kts
10-Mar-21 13:56 22.389463 -154.628129 269 60236ft 862kts
10-Mar-21 13:57 22.392318 -154.893571 271 59174ft 864kts
10-Mar-21 13:59 22.396964 -155.199668 271 57519ft 835kts
10-Mar-21 14:00 22.400403 -155.454562 271 55783ft 810kts
10-Mar-21 14:01 22.403335 -155.700405 271 54521ft 789kts
10-Mar-21 14:01 22.405460 -155.900972 271 53677ft 774kts
10-Mar-21 14:02 22.408091 -156.127798 269 49641ft 702kts
10-Mar-21 14:03 22.391171 -156.331668 246 44390ft 637kts
10-Mar-21 14:05 22.246525 -156.476556 215 38689ft 568kts
10-Mar-21 14:05 22.151346 -156.568249 226 36127ft 500kts
10-Mar-21 14:06 22.057673 -156.683253 227 31525ft 496kts
10-Mar-21 14:07 21.968146 -156.798327 228 28013ft 475kts
10-Mar-21 14:08 21.883087 -156.908329 227 24545ft 457kts
10-Mar-21 14:09 21.806443 -157.006649 228 24195ft 380kts
10-Mar-21 14:10 21.731357 -157.103524 228 24193ft 433kts
10-Mar-21 14:11 21.654082 -157.203479 228 21587ft 415kts
10-Mar-21 14:12 21.579899 -157.299280 229 18971ft 397kts
10-Mar-21 14:13 21.509342 -157.390273 229 16416ft 382kts
10-Mar-21 14:14 21.443701 -157.474759 229 14260ft 332kts
10-Mar-21 14:15 21.387845 -157.546441 229 12141ft 285kts
10-Mar-21 14:16 21.331881 -157.618204 229 10945ft 319kts
10-Mar-21 14:17 21.273409 -157.693015 229 11001ft 319kts
10-Mar-21 14:18 21.213207 -157.766420 227 11009ft 318kts
10-Mar-21 14:19 21.152592 -157.838726 227 11015ft 318kts
10-Mar-21 14:20 21.112344 -157.922358 268 11021ft 326kts
10-Mar-21 14:21 21.113060 -158.021901 268 11010ft 324kts
10-Mar-21 14:22 21.114129 -158.117724 268 11020ft 324kts
10-Mar-21 14:23 21.115239 -158.217031 268 11026ft 323kts
10-Mar-21 14:24 21.150619 -158.291074 353 10292ft 303kts
10-Mar-21 14:25 21.235504 -158.291349 359 8017ft 291kts
10-Mar-21 14:26 21.306435 -158.267373 49 5325ft 244kts
10-Mar-21 14:27 21.326941 -158.209957 95 4661ft 209kts
10-Mar-21 14:28 21.324953 -158.145991 92 3783ft 206kts
10-Mar-21 14:29 21.325143 -158.084656 92 2627ft 187kts
10-Mar-21 14:30 21.325199 -158.028161 92 1606ft 183kts
10-Mar-21 14:31 21.325248 -157.972912 92 601ft 179kts
10-Mar-21 14:32 21.325227 -157.921370 89 25ft 110kts
10-Mar-21 14:33 21.326341 -157.907096 53 25ft 25kts
10-Mar-21 14:34 21.329228 -157.906673 321 25ft 12kts
10-Mar-21 14:35 21.329938 -157.909722 272 25ft 11kts
10-Mar-21 14:36 21.330508 -157.911214 320 25ft 0kts
10-Mar-21 14:37 21.330508 -157.911214 320 25ft 0kts
10-Mar-21 14:38 21.330508 -157.911214 320 25ft 0kts

Navigation Log

Ident Type
Flight plan parsing failed, navigation log unavailable